createdAt,value
2022-08-28T00:01:37.247Z,9.30
2022-08-28T00:04:10.063Z,7.22
2022-08-28T00:06:40.381Z,8.00
2022-08-28T00:09:13.219Z,6.55
2022-08-28T00:11:43.768Z,7.90
2022-08-28T00:14:14.632Z,6.28
2022-08-28T00:16:46.615Z,7.00
2022-08-28T00:19:16.956Z,5.32
2022-08-28T00:21:49.381Z,7.55
2022-08-28T00:24:22.287Z,7.47
2022-08-28T00:27:06.044Z,5.57
2022-08-28T00:29:36.385Z,6.72
2022-08-28T00:32:09.304Z,6.95
2022-08-28T00:34:39.970Z,5.32
2022-08-28T00:37:10.290Z,6.53
2022-08-28T00:39:43.163Z,7.03
2022-08-28T00:42:14.580Z,5.88
2022-08-28T00:44:45.442Z,4.95
2022-08-28T00:47:16.717Z,5.85
2022-08-28T00:49:53.945Z,10.65
2022-08-28T00:52:27.456Z,4.40
2022-08-28T00:55:05.756Z,8.98
2022-08-28T00:57:41.828Z,6.50
2022-08-28T01:00:19.054Z,5.25
2022-08-28T01:02:52.339Z,5.45
2022-08-28T01:05:24.723Z,5.55
2022-08-28T01:07:57.558Z,6.70
2022-08-28T01:10:36.291Z,6.75
2022-08-28T01:13:07.513Z,5.03
2022-08-28T01:15:42.270Z,4.68
2022-08-28T01:18:18.310Z,5.35
2022-08-28T01:20:58.236Z,4.38
2022-08-28T01:23:48.531Z,6.32
2022-08-28T01:26:18.797Z,6.03
2022-08-28T01:28:58.430Z,6.68
2022-08-28T01:31:32.079Z,8.75
2022-08-28T01:34:05.076Z,4.60
2022-08-28T01:36:35.974Z,5.07
2022-08-28T01:39:15.128Z,6.70
2022-08-28T01:41:48.321Z,5.32
2022-08-28T01:44:25.836Z,4.72
2022-08-28T01:47:00.407Z,8.27
2022-08-28T01:49:33.518Z,9.18
2022-08-28T01:52:04.036Z,5.75
2022-08-28T01:54:36.906Z,6.38
2022-08-28T01:57:09.742Z,4.72
2022-08-28T01:59:39.974Z,4.75
2022-08-28T02:02:12.349Z,5.35
2022-08-28T02:04:46.148Z,4.95
2022-08-28T02:07:18.840Z,5.13
2022-08-28T02:09:51.778Z,5.75
2022-08-28T02:12:22.164Z,7.15
2022-08-28T02:14:53.633Z,5.72
2022-08-28T02:17:23.905Z,4.40
2022-08-28T02:19:54.529Z,5.97
2022-08-28T02:22:24.815Z,7.93
2022-08-28T02:24:57.677Z,6.30
2022-08-28T02:27:27.887Z,6.40
2022-08-28T02:29:58.752Z,5.38
2022-08-28T02:32:30.099Z,7.45
2022-08-28T02:35:00.601Z,4.78
2022-08-28T02:37:30.863Z,5.10
2022-08-28T02:40:09.017Z,6.53
2022-08-28T02:42:39.227Z,5.65
2022-08-28T02:45:13.178Z,5.13
2022-08-28T02:47:47.409Z,6.75
2022-08-28T02:50:23.026Z,5.93
2022-08-28T02:53:00.988Z,3.55
2022-08-28T02:55:34.362Z,7.13
2022-08-28T02:58:06.654Z,8.68
2022-08-28T03:00:37.036Z,5.07
2022-08-28T03:03:07.328Z,5.15
2022-08-28T03:05:37.547Z,7.15
2022-08-28T03:08:08.194Z,7.45
2022-08-28T03:10:42.102Z,8.82
2022-08-28T03:13:26.570Z,5.88
2022-08-28T03:15:57.879Z,5.90
2022-08-28T03:18:30.730Z,8.43
2022-08-28T03:21:01.013Z,3.78
2022-08-28T03:23:32.072Z,5.72
2022-08-28T03:26:08.740Z,6.15
2022-08-28T03:28:43.236Z,4.60
2022-08-28T03:31:21.853Z,6.88
2022-08-28T03:33:55.196Z,5.18
2022-08-28T03:36:29.624Z,6.40
2022-08-28T03:39:05.059Z,5.20
2022-08-28T03:41:37.995Z,6.25
2022-08-28T03:44:08.312Z,6.38
2022-08-28T03:46:38.872Z,6.35
2022-08-28T03:49:09.263Z,7.00
2022-08-28T03:51:39.647Z,6.03
2022-08-28T03:54:09.845Z,5.05
2022-08-28T03:56:45.303Z,6.25
2022-08-28T03:59:15.767Z,6.80
2022-08-28T04:01:46.010Z,6.75
2022-08-28T04:04:16.360Z,5.82
2022-08-28T04:06:46.610Z,5.43
2022-08-28T04:09:16.831Z,6.38
2022-08-28T04:11:49.644Z,6.30
2022-08-28T04:14:19.827Z,6.72
2022-08-28T04:16:51.455Z,4.38
2022-08-28T04:19:21.648Z,5.43
2022-08-28T04:21:56.327Z,7.20
2022-08-28T04:24:26.620Z,4.13
2022-08-28T04:26:59.424Z,6.07
2022-08-28T04:29:29.774Z,6.78
2022-08-28T04:32:00.255Z,8.07
2022-08-28T04:34:31.561Z,8.07
2022-08-28T04:37:01.745Z,5.40
2022-08-28T04:39:31.979Z,7.78
2022-08-28T04:42:06.346Z,6.60
2022-08-28T04:44:36.783Z,7.63
2022-08-28T04:47:07.480Z,6.88
2022-08-28T04:49:38.696Z,5.80
2022-08-28T04:52:09.508Z,5.75
2022-08-28T04:54:40.053Z,5.75
2022-08-28T04:57:12.921Z,5.05
2022-08-28T04:59:45.101Z,7.18
2022-08-28T05:02:15.353Z,6.82
2022-08-28T05:04:47.390Z,5.38
2022-08-28T05:07:17.731Z,7.63
2022-08-28T05:09:48.463Z,4.75
2022-08-28T05:12:21.300Z,5.90
2022-08-28T05:14:52.128Z,5.97
2022-08-28T05:17:24.611Z,7.65
2022-08-28T05:19:56.690Z,6.47
2022-08-28T05:22:28.859Z,6.85
2022-08-28T05:25:01.154Z,7.22
2022-08-28T05:27:33.938Z,6.75
2022-08-28T05:30:04.298Z,4.88
2022-08-28T05:32:34.635Z,9.18
2022-08-28T05:35:04.820Z,5.35
2022-08-28T05:37:35.531Z,7.57
2022-08-28T05:40:07.166Z,7.30
2022-08-28T05:42:40.596Z,8.13
2022-08-28T05:45:14.664Z,10.57
2022-08-28T05:47:45.264Z,8.63
2022-08-28T05:50:16.191Z,10.10
2022-08-28T05:52:47.864Z,8.90
2022-08-28T05:55:18.325Z,7.75
2022-08-28T05:57:51.133Z,10.20
2022-08-28T06:00:21.657Z,6.82
2022-08-28T06:02:52.054Z,9.95
2022-08-28T06:05:22.989Z,8.50
2022-08-28T06:07:53.219Z,11.50
2022-08-28T06:10:23.482Z,7.95
2022-08-28T06:12:56.257Z,10.35
2022-08-28T06:15:27.017Z,8.98
2022-08-28T06:18:01.921Z,9.20
2022-08-28T06:20:32.144Z,11.13
2022-08-28T06:23:02.350Z,10.45
2022-08-28T06:25:32.650Z,10.52
2022-08-28T06:28:06.132Z,5.68
2022-08-28T06:30:40.135Z,7.78
2022-08-28T06:33:13.878Z,9.57
2022-08-28T06:35:45.185Z,9.25
2022-08-28T06:38:15.477Z,8.98
2022-08-28T06:40:49.393Z,9.60
2022-08-28T06:43:25.028Z,11.80
2022-08-28T06:45:58.483Z,9.52
2022-08-28T06:48:31.805Z,7.60
2022-08-28T06:51:03.079Z,11.65
2022-08-28T06:53:34.012Z,8.85
2022-08-28T06:56:08.716Z,12.82
2022-08-28T06:58:49.990Z,7.47
2022-08-28T07:01:26.068Z,9.80
2022-08-28T07:04:00.594Z,6.82
2022-08-28T07:06:34.847Z,10.48
2022-08-28T07:09:07.025Z,7.88
2022-08-28T07:11:39.575Z,11.13
2022-08-28T07:14:12.529Z,11.40
2022-08-28T07:16:46.785Z,7.38
2022-08-28T07:19:17.190Z,10.73
2022-08-28T07:21:49.510Z,8.77
2022-08-28T07:24:21.203Z,8.93
2022-08-28T07:26:52.294Z,12.63
2022-08-28T07:29:27.935Z,6.40
2022-08-28T07:31:59.730Z,10.35
2022-08-28T07:34:30.029Z,11.32
2022-08-28T07:37:04.285Z,9.68
2022-08-28T07:39:34.677Z,7.18
2022-08-28T07:42:05.367Z,10.20
2022-08-28T07:44:50.976Z,9.60
2022-08-28T07:47:21.898Z,9.85
2022-08-28T07:49:53.525Z,10.70
2022-08-28T07:52:23.822Z,8.18
2022-08-28T07:54:54.040Z,8.57
2022-08-28T07:57:24.961Z,11.57
2022-08-28T07:59:57.888Z,11.38
2022-08-28T08:02:28.257Z,9.35
2022-08-28T08:04:58.801Z,11.00
2022-08-28T08:07:29.008Z,9.35
2022-08-28T08:09:59.304Z,10.35
2022-08-28T08:12:29.541Z,9.10
2022-08-28T08:15:02.613Z,7.72
2022-08-28T08:17:32.809Z,10.90
2022-08-28T08:20:03.055Z,7.35
2022-08-28T08:22:33.304Z,11.50
2022-08-28T08:25:05.033Z,8.65
2022-08-28T08:27:39.870Z,9.15
2022-08-28T08:30:17.580Z,7.07
2022-08-28T08:32:47.837Z,7.63
2022-08-28T08:35:18.116Z,7.40
2022-08-28T08:37:48.323Z,8.88
2022-08-28T08:40:20.669Z,9.55
2022-08-28T08:42:57.648Z,5.95
2022-08-28T08:45:32.316Z,7.82
2022-08-28T08:48:04.885Z,10.20
2022-08-28T08:50:38.795Z,6.75
2022-08-28T08:53:31.409Z,7.95
2022-08-28T08:56:05.687Z,7.18
2022-08-28T08:58:40.809Z,7.25
2022-08-28T09:01:24.323Z,8.43
2022-08-28T09:04:15.770Z,11.85
2022-08-28T09:06:55.489Z,8.25
2022-08-28T09:09:34.085Z,10.68
2022-08-28T09:12:08.577Z,9.50
2022-08-28T09:14:48.074Z,9.55
2022-08-28T09:17:27.674Z,7.95
2022-08-28T09:19:58.536Z,6.22
2022-08-28T09:22:28.704Z,6.72
2022-08-28T09:24:59.259Z,9.77
2022-08-28T09:27:33.438Z,7.68
2022-08-28T09:30:13.078Z,8.65
2022-08-28T09:33:00.989Z,8.13
2022-08-28T09:35:34.519Z,9.35
2022-08-28T09:38:27.617Z,8.20
2022-08-28T09:41:27.012Z,8.05
2022-08-28T09:43:57.396Z,8.05
2022-08-28T09:46:35.024Z,6.82
2022-08-28T09:49:17.951Z,7.13
2022-08-28T09:51:48.198Z,6.80
2022-08-28T09:54:32.321Z,7.53
2022-08-28T09:57:04.398Z,8.63
2022-08-28T09:59:35.055Z,6.28
2022-08-28T10:02:24.762Z,7.88
2022-08-28T10:05:37.536Z,9.45
2022-08-28T10:08:24.857Z,6.95
2022-08-28T10:11:04.525Z,9.20
2022-08-28T10:13:49.949Z,7.05
2022-08-28T10:16:34.819Z,7.95
2022-08-28T10:19:15.512Z,6.55
2022-08-28T10:21:59.088Z,8.60
2022-08-28T10:24:58.023Z,6.40
2022-08-28T10:28:23.536Z,5.65
2022-08-28T10:31:12.884Z,5.82
2022-08-28T10:34:02.799Z,5.18
2022-08-28T10:36:37.623Z,7.82
2022-08-28T10:39:34.920Z,7.85
2022-08-28T10:42:10.298Z,5.80
2022-08-28T10:44:49.872Z,6.45
2022-08-28T10:47:24.510Z,7.03
2022-08-28T10:50:03.251Z,5.57
2022-08-28T10:52:41.115Z,4.93
2022-08-28T10:55:22.652Z,4.20
2022-08-28T10:58:02.555Z,5.30
2022-08-28T11:00:34.007Z,4.60
2022-08-28T11:03:22.283Z,7.30
2022-08-28T11:06:05.891Z,5.65
2022-08-28T11:08:40.123Z,5.63
2022-08-28T11:11:21.176Z,5.10
2022-08-28T11:14:00.610Z,9.27
2022-08-28T11:16:46.691Z,5.43
2022-08-28T11:20:06.336Z,4.63
2022-08-28T11:22:45.192Z,4.50
2022-08-28T11:25:26.643Z,5.63
2022-08-28T11:28:22.892Z,5.13
2022-08-28T11:31:35.401Z,7.18
2022-08-28T11:34:06.416Z,5.25
2022-08-28T11:37:04.173Z,8.00
2022-08-28T11:39:34.363Z,6.05
2022-08-28T11:42:40.743Z,8.23
2022-08-28T11:45:31.437Z,8.85
2022-08-28T11:48:08.576Z,9.00
2022-08-28T11:51:02.394Z,6.72
2022-08-28T11:53:57.926Z,4.65
2022-08-28T11:56:53.443Z,6.15
2022-08-28T12:00:03.749Z,5.45
2022-08-28T12:03:13.950Z,6.40
2022-08-28T12:05:55.229Z,4.20
2022-08-28T12:09:15.537Z,5.95
2022-08-28T12:12:02.787Z,6.75
2022-08-28T12:15:11.402Z,5.47
2022-08-28T12:18:01.203Z,3.90
2022-08-28T12:21:00.552Z,6.25
2022-08-28T12:23:47.577Z,4.50
2022-08-28T12:26:30.740Z,5.32
2022-08-28T12:29:05.005Z,8.30
2022-08-28T12:32:46.093Z,6.82
2022-08-28T12:35:43.819Z,6.28
2022-08-28T12:38:24.758Z,4.30
2022-08-28T12:41:00.090Z,5.47
2022-08-28T12:43:56.345Z,6.43
2022-08-28T12:49:38.264Z,6.35
2022-08-28T12:52:20.899Z,3.80
2022-08-28T12:54:59.059Z,5.05
2022-08-28T12:57:30.458Z,6.30
2022-08-28T13:00:18.835Z,4.95
2022-08-28T13:02:50.959Z,8.40
2022-08-28T13:05:41.163Z,3.55
2022-08-28T13:08:15.412Z,4.90
2022-08-28T13:10:54.508Z,4.35
2022-08-28T13:13:37.749Z,6.25
2022-08-28T13:16:11.387Z,4.07
2022-08-28T13:18:51.400Z,6.20
2022-08-28T13:21:37.344Z,5.82
2022-08-28T13:24:43.985Z,6.50
2022-08-28T13:27:39.965Z,5.40
2022-08-28T13:30:27.288Z,8.10
2022-08-28T13:33:04.911Z,4.03
2022-08-28T13:35:44.000Z,5.95
2022-08-28T13:38:16.636Z,5.65
2022-08-28T13:41:00.563Z,7.05
2022-08-28T13:43:49.226Z,5.07
2022-08-28T13:46:20.128Z,4.78
2022-08-28T13:48:51.616Z,5.68
2022-08-28T13:51:23.700Z,7.18
2022-08-28T13:53:54.703Z,4.85
2022-08-28T13:56:27.880Z,4.35
2022-08-28T13:59:00.703Z,6.10
2022-08-28T14:01:53.162Z,5.90
2022-08-28T14:04:20.815Z,4.10
2022-08-28T14:06:51.160Z,3.67
2022-08-28T14:09:21.836Z,4.88
2022-08-28T14:11:55.378Z,3.90
2022-08-28T14:14:28.293Z,6.10
2022-08-28T14:16:59.540Z,6.55
2022-08-28T14:19:29.978Z,3.50
2022-08-28T14:22:00.632Z,7.32
2022-08-28T14:24:32.121Z,3.17
2022-08-28T14:27:02.721Z,4.55
2022-08-28T14:29:35.670Z,4.38
2022-08-28T14:32:06.887Z,4.50
2022-08-28T14:34:38.281Z,4.63
2022-08-28T14:37:08.680Z,4.65
2022-08-28T14:39:39.213Z,5.10
2022-08-28T14:42:13.283Z,4.10
2022-08-28T14:44:46.419Z,4.30
2022-08-28T14:47:16.654Z,4.70
2022-08-28T14:49:47.056Z,3.95
2022-08-28T14:52:18.645Z,4.35
2022-08-28T14:54:49.584Z,4.93
2022-08-28T14:57:19.822Z,3.70
2022-08-28T14:59:55.033Z,4.88
2022-08-28T15:02:25.239Z,4.40
2022-08-28T15:04:55.475Z,3.47
2022-08-28T15:07:25.678Z,5.10
2022-08-28T15:09:55.947Z,5.28
2022-08-28T15:12:26.087Z,4.28
2022-08-28T15:15:03.376Z,5.28
2022-08-28T15:17:34.501Z,4.82
2022-08-28T15:20:05.224Z,4.22
2022-08-28T15:22:35.489Z,5.32
2022-08-28T15:25:06.401Z,5.28
2022-08-28T15:27:36.818Z,3.88
2022-08-28T15:30:13.229Z,3.78
2022-08-28T15:32:46.401Z,2.78
2022-08-28T15:35:16.713Z,7.20
2022-08-28T15:37:47.818Z,3.58
2022-08-28T15:40:33.478Z,5.32
2022-08-28T15:43:03.677Z,3.08
2022-08-28T15:45:40.137Z,4.20
2022-08-28T15:48:12.284Z,3.35
2022-08-28T15:50:44.831Z,4.78
2022-08-28T15:53:15.157Z,3.90
2022-08-28T15:55:50.522Z,3.22
2022-08-28T15:58:23.091Z,2.60
2022-08-28T16:00:55.997Z,3.60
2022-08-28T16:03:27.419Z,4.70
2022-08-28T16:05:57.611Z,4.78
2022-08-28T16:08:28.063Z,4.70
2022-08-28T16:10:58.662Z,3.15
2022-08-28T16:13:29.263Z,4.35
2022-08-28T16:16:02.815Z,5.40
2022-08-28T16:18:37.532Z,3.60
2022-08-28T16:21:08.643Z,4.63
2022-08-28T16:23:40.155Z,3.50
2022-08-28T16:26:15.945Z,5.40
2022-08-28T16:28:49.321Z,5.15
2022-08-28T16:31:22.412Z,4.05
2022-08-28T16:33:53.829Z,5.00
2022-08-28T16:36:25.281Z,5.88
2022-08-28T16:38:59.753Z,3.83
2022-08-28T16:41:37.548Z,4.20
2022-08-28T16:44:11.540Z,4.78
2022-08-28T16:46:44.738Z,2.63
2022-08-28T16:49:15.031Z,4.30
2022-08-28T16:51:45.422Z,4.53
2022-08-28T16:54:16.259Z,2.67
2022-08-28T16:56:47.223Z,4.38
2022-08-28T16:59:23.315Z,3.88
2022-08-28T17:01:56.964Z,2.75
2022-08-28T17:04:27.570Z,3.65
2022-08-28T17:07:01.553Z,4.25
2022-08-28T17:09:32.856Z,4.07
2022-08-28T17:12:03.314Z,5.78
2022-08-28T17:14:34.586Z,4.60
2022-08-28T17:17:07.616Z,6.45
2022-08-28T17:19:38.413Z,4.40
2022-08-28T17:22:21.824Z,4.47
2022-08-28T17:24:53.223Z,5.72
2022-08-28T17:27:23.683Z,5.72
2022-08-28T17:29:56.450Z,3.05
2022-08-28T17:32:29.353Z,5.45
2022-08-28T17:34:59.705Z,5.63
2022-08-28T17:37:30.050Z,4.68
2022-08-28T17:40:00.411Z,4.03
2022-08-28T17:42:30.864Z,3.70
2022-08-28T17:45:01.119Z,5.95
2022-08-28T17:47:34.260Z,7.40
2022-08-28T17:50:05.820Z,3.92
2022-08-28T17:52:36.297Z,4.13
2022-08-28T17:55:08.213Z,3.00
2022-08-28T17:57:39.606Z,3.40
2022-08-28T18:00:16.180Z,5.63
2022-08-28T18:02:52.310Z,4.97
2022-08-28T18:05:23.698Z,4.80
2022-08-28T18:07:53.992Z,5.47
2022-08-28T18:10:24.448Z,4.53
2022-08-28T18:12:55.478Z,4.43
2022-08-28T18:15:25.857Z,5.25
2022-08-28T18:18:02.796Z,5.13
2022-08-28T18:20:33.008Z,3.65
2022-08-28T18:23:03.617Z,5.00
2022-08-28T18:25:50.782Z,4.05
2022-08-28T18:28:27.292Z,4.13
2022-08-28T18:31:00.058Z,2.58
2022-08-28T18:33:33.118Z,5.00
2022-08-28T18:36:03.544Z,6.13
2022-08-28T18:38:35.561Z,5.07
2022-08-28T18:41:08.306Z,3.42
2022-08-28T18:43:39.244Z,4.00
2022-08-28T18:46:14.113Z,4.47
2022-08-28T18:48:47.370Z,2.50
2022-08-28T18:51:21.253Z,4.30
2022-08-28T18:53:52.538Z,2.58
2022-08-28T18:56:22.831Z,4.13
2022-08-28T18:58:54.921Z,3.63
2022-08-28T19:01:25.440Z,3.75
2022-08-28T19:03:58.836Z,3.08
2022-08-28T19:06:29.162Z,5.10
2022-08-28T19:08:59.347Z,6.13
2022-08-28T19:11:31.423Z,3.05
2022-08-28T19:14:03.789Z,3.03
2022-08-28T19:16:35.383Z,3.22
2022-08-28T19:19:08.926Z,3.55
2022-08-28T19:21:39.409Z,4.32
2022-08-28T19:24:10.124Z,3.60
2022-08-28T19:26:41.197Z,6.60
2022-08-28T19:29:11.390Z,6.45
2022-08-28T19:31:42.609Z,5.28
2022-08-28T19:34:15.568Z,3.30
2022-08-28T19:36:45.772Z,4.00
2022-08-28T19:39:16.289Z,4.22
2022-08-28T19:41:46.926Z,3.03
2022-08-28T19:44:17.181Z,2.65
2022-08-28T19:46:49.791Z,3.25
2022-08-28T19:49:23.476Z,5.60
2022-08-28T19:51:54.063Z,5.90
2022-08-28T19:54:24.398Z,4.95
2022-08-28T19:56:54.903Z,4.55
2022-08-28T19:59:27.254Z,3.70
2022-08-28T20:01:57.681Z,2.97
2022-08-28T20:04:30.655Z,4.47
2022-08-28T20:07:01.773Z,4.10
2022-08-28T20:09:32.528Z,4.97
2022-08-28T20:12:03.723Z,4.05
2022-08-28T20:14:34.394Z,6.13
2022-08-28T20:17:05.018Z,5.60
2022-08-28T20:19:41.310Z,8.15
2022-08-28T20:22:11.846Z,2.70
2022-08-28T20:24:42.432Z,4.97
2022-08-28T20:27:13.022Z,8.48
2022-08-28T20:29:43.755Z,6.25
2022-08-28T20:32:14.133Z,5.35
2022-08-28T20:34:50.077Z,6.03
2022-08-28T20:37:20.349Z,3.10
2022-08-28T20:39:50.591Z,4.88
2022-08-28T20:42:20.810Z,4.75
2022-08-28T20:44:51.025Z,2.88
2022-08-28T20:47:22.108Z,2.80
2022-08-28T20:49:56.864Z,4.28
2022-08-28T20:52:27.227Z,2.75
2022-08-28T20:54:58.634Z,4.03
2022-08-28T20:57:31.496Z,4.18
2022-08-28T21:00:05.494Z,4.88
2022-08-28T21:02:36.149Z,5.10
2022-08-28T21:05:11.196Z,3.95
2022-08-28T21:07:41.448Z,3.45
2022-08-28T21:10:12.047Z,4.10
2022-08-28T21:12:43.961Z,3.33
2022-08-28T21:15:19.069Z,4.97
2022-08-28T21:17:49.403Z,4.13
2022-08-28T21:20:22.881Z,6.80
2022-08-28T21:22:56.050Z,4.57
2022-08-28T21:25:27.892Z,2.92
2022-08-28T21:27:58.136Z,4.82
2022-08-28T21:30:34.768Z,3.55
2022-08-28T21:33:05.316Z,4.53
2022-08-28T21:35:38.202Z,2.88
2022-08-28T21:38:08.375Z,2.92
2022-08-28T21:40:39.080Z,5.53
2022-08-28T21:43:09.371Z,3.63
2022-08-28T21:45:39.790Z,3.53
2022-08-28T21:48:10.122Z,4.43
2022-08-28T21:50:45.903Z,4.20
2022-08-28T21:53:16.552Z,5.95
2022-08-28T21:55:53.006Z,3.45
2022-08-28T21:58:24.956Z,4.85
2022-08-28T22:01:01.178Z,4.53
2022-08-28T22:03:33.467Z,6.28
2022-08-28T22:06:06.476Z,5.15
2022-08-28T22:08:37.154Z,7.88
2022-08-28T22:11:09.011Z,4.35
2022-08-28T22:13:40.181Z,3.38
2022-08-28T22:16:11.664Z,3.38
2022-08-28T22:18:42.248Z,4.20
2022-08-28T22:21:33.026Z,3.35
2022-08-28T22:24:04.541Z,4.72
2022-08-28T22:26:34.968Z,3.63
2022-08-28T22:29:06.438Z,4.95
2022-08-28T22:31:43.905Z,5.63
2022-08-28T22:34:17.736Z,4.38
2022-08-28T22:36:50.602Z,6.15
2022-08-28T22:39:20.871Z,4.80
2022-08-28T22:41:51.158Z,5.15
2022-08-28T22:44:21.515Z,3.95
2022-08-28T22:46:51.706Z,3.88
2022-08-28T22:49:21.918Z,4.53
2022-08-28T22:51:54.783Z,3.55
2022-08-28T22:54:25.185Z,3.95
2022-08-28T22:56:55.498Z,3.65
2022-08-28T22:59:28.084Z,4.63
2022-08-28T23:01:58.961Z,6.13
2022-08-28T23:04:30.436Z,7.18
2022-08-28T23:07:03.335Z,3.88
2022-08-28T23:09:36.006Z,4.43
2022-08-28T23:12:10.598Z,3.33
2022-08-28T23:14:43.311Z,5.55
2022-08-28T23:17:15.579Z,6.47
2022-08-28T23:19:48.166Z,4.90
2022-08-28T23:22:22.171Z,3.60
2022-08-28T23:24:52.481Z,4.85
2022-08-28T23:27:37.950Z,5.75
2022-08-28T23:30:10.303Z,3.05
2022-08-28T23:32:40.660Z,4.00
2022-08-28T23:35:17.125Z,7.03
2022-08-28T23:37:52.016Z,5.15
2022-08-28T23:40:26.015Z,5.53
2022-08-28T23:42:59.253Z,3.95
2022-08-28T23:45:29.630Z,4.93
2022-08-28T23:48:00.024Z,4.10
2022-08-28T23:50:30.186Z,8.38
2022-08-28T23:53:05.521Z,4.45
2022-08-28T23:55:35.901Z,5.05
2022-08-28T23:58:06.587Z,3.40
